sensor_id;sensor_type;location;lat;lon;timestamp;P1;durP1;ratioP1;P2;durP2;ratioP2
74064;SDS011;62421;51.412;5.432;2023-04-24T00:00:53;17.33;;;9.82;;
74064;SDS011;62421;51.412;5.432;2023-04-24T00:03:21;17.80;;;10.57;;
74064;SDS011;62421;51.412;5.432;2023-04-24T00:05:50;21.92;;;10.52;;
74064;SDS011;62421;51.412;5.432;2023-04-24T00:08:16;19.25;;;10.18;;
74064;SDS011;62421;51.412;5.432;2023-04-24T00:10:42;21.60;;;10.35;;
74064;SDS011;62421;51.412;5.432;2023-04-24T00:13:07;19.60;;;9.27;;
74064;SDS011;62421;51.412;5.432;2023-04-24T00:15:33;22.07;;;10.80;;
74064;SDS011;62421;51.412;5.432;2023-04-24T00:17:58;20.73;;;10.73;;
74064;SDS011;62421;51.412;5.432;2023-04-24T00:20:24;18.40;;;9.80;;
74064;SDS011;62421;51.412;5.432;2023-04-24T00:22:49;21.15;;;10.43;;
74064;SDS011;62421;51.412;5.432;2023-04-24T00:25:14;24.87;;;10.90;;
74064;SDS011;62421;51.412;5.432;2023-04-24T00:27:40;23.90;;;10.47;;
74064;SDS011;62421;51.412;5.432;2023-04-24T00:30:05;20.77;;;10.00;;
74064;SDS011;62421;51.412;5.432;2023-04-24T00:32:31;15.40;;;9.48;;
74064;SDS011;62421;51.412;5.432;2023-04-24T00:34:57;21.87;;;10.20;;
74064;SDS011;62421;51.412;5.432;2023-04-24T00:37:22;17.93;;;9.63;;
74064;SDS011;62421;51.412;5.432;2023-04-24T00:39:47;19.90;;;10.83;;
74064;SDS011;62421;51.412;5.432;2023-04-24T00:42:13;20.37;;;10.17;;
74064;SDS011;62421;51.412;5.432;2023-04-24T00:44:38;22.08;;;10.98;;
74064;SDS011;62421;51.412;5.432;2023-04-24T00:47:04;18.53;;;10.57;;
74064;SDS011;62421;51.412;5.432;2023-04-24T00:49:29;24.48;;;10.15;;
74064;SDS011;62421;51.412;5.432;2023-04-24T00:51:55;17.73;;;10.55;;
74064;SDS011;62421;51.412;5.432;2023-04-24T00:54:21;20.48;;;11.02;;
74064;SDS011;62421;51.412;5.432;2023-04-24T00:56:47;20.13;;;10.37;;
74064;SDS011;62421;51.412;5.432;2023-04-24T00:59:13;24.38;;;11.35;;
74064;SDS011;62421;51.412;5.432;2023-04-24T01:01:41;24.70;;;11.70;;
74064;SDS011;62421;51.412;5.432;2023-04-24T01:04:07;24.75;;;12.63;;
74064;SDS011;62421;51.412;5.432;2023-04-24T01:06:33;23.13;;;13.25;;
74064;SDS011;62421;51.412;5.432;2023-04-24T01:08:59;22.83;;;12.25;;
74064;SDS011;62421;51.412;5.432;2023-04-24T01:11:25;21.43;;;11.97;;
74064;SDS011;62421;51.412;5.432;2023-04-24T01:13:51;27.95;;;12.82;;
74064;SDS011;62421;51.412;5.432;2023-04-24T01:16:17;23.40;;;12.13;;
74064;SDS011;62421;51.412;5.432;2023-04-24T01:18:45;27.52;;;13.02;;
74064;SDS011;62421;51.412;5.432;2023-04-24T01:21:11;30.40;;;13.18;;
74064;SDS011;62421;51.412;5.432;2023-04-24T01:23:39;27.40;;;13.50;;
74064;SDS011;62421;51.412;5.432;2023-04-24T01:26:05;29.27;;;13.23;;
74064;SDS011;62421;51.412;5.432;2023-04-24T01:28:30;28.63;;;14.10;;
74064;SDS011;62421;51.412;5.432;2023-04-24T01:30:56;32.17;;;14.13;;
74064;SDS011;62421;51.412;5.432;2023-04-24T01:33:21;26.83;;;13.83;;
74064;SDS011;62421;51.412;5.432;2023-04-24T01:35:48;26.77;;;13.93;;
74064;SDS011;62421;51.412;5.432;2023-04-24T01:38:13;29.15;;;14.43;;
74064;SDS011;62421;51.412;5.432;2023-04-24T01:40:39;32.77;;;15.33;;
74064;SDS011;62421;51.412;5.432;2023-04-24T01:43:04;24.90;;;13.40;;
74064;SDS011;62421;51.412;5.432;2023-04-24T01:45:30;25.98;;;14.43;;
74064;SDS011;62421;51.412;5.432;2023-04-24T01:47:55;26.17;;;13.83;;
74064;SDS011;62421;51.412;5.432;2023-04-24T01:50:21;27.97;;;15.10;;
74064;SDS011;62421;51.412;5.432;2023-04-24T01:52:47;27.90;;;15.77;;
74064;SDS011;62421;51.412;5.432;2023-04-24T01:55:12;25.17;;;14.57;;
74064;SDS011;62421;51.412;5.432;2023-04-24T01:57:37;27.03;;;15.57;;
74064;SDS011;62421;51.412;5.432;2023-04-24T02:00:03;30.50;;;14.87;;
74064;SDS011;62421;51.412;5.432;2023-04-24T02:02:29;23.80;;;14.77;;
74064;SDS011;62421;51.412;5.432;2023-04-24T02:04:55;27.27;;;15.03;;
74064;SDS011;62421;51.412;5.432;2023-04-24T02:07:21;22.95;;;13.85;;
74064;SDS011;62421;51.412;5.432;2023-04-24T02:09:47;35.05;;;16.70;;
74064;SDS011;62421;51.412;5.432;2023-04-24T02:12:12;25.27;;;14.07;;
74064;SDS011;62421;51.412;5.432;2023-04-24T02:14:38;29.17;;;14.47;;
74064;SDS011;62421;51.412;5.432;2023-04-24T02:17:03;24.37;;;15.33;;
74064;SDS011;62421;51.412;5.432;2023-04-24T02:19:29;22.73;;;13.57;;
74064;SDS011;62421;51.412;5.432;2023-04-24T02:21:55;29.40;;;14.97;;
74064;SDS011;62421;51.412;5.432;2023-04-24T02:24:20;26.65;;;15.48;;
74064;SDS011;62421;51.412;5.432;2023-04-24T02:26:46;24.67;;;13.80;;
74064;SDS011;62421;51.412;5.432;2023-04-24T02:29:11;27.60;;;14.27;;
74064;SDS011;62421;51.412;5.432;2023-04-24T02:31:37;26.37;;;13.30;;
74064;SDS011;62421;51.412;5.432;2023-04-24T02:34:02;27.90;;;14.10;;
74064;SDS011;62421;51.412;5.432;2023-04-24T02:36:27;27.80;;;15.43;;
74064;SDS011;62421;51.412;5.432;2023-04-24T02:38:53;25.43;;;14.27;;
74064;SDS011;62421;51.412;5.432;2023-04-24T02:41:18;24.17;;;14.30;;
74064;SDS011;62421;51.412;5.432;2023-04-24T02:43:44;27.27;;;15.07;;
74064;SDS011;62421;51.412;5.432;2023-04-24T02:46:09;25.42;;;13.48;;
74064;SDS011;62421;51.412;5.432;2023-04-24T02:48:35;27.02;;;14.38;;
74064;SDS011;62421;51.412;5.432;2023-04-24T02:51:00;29.83;;;13.47;;
74064;SDS011;62421;51.412;5.432;2023-04-24T02:53:26;23.67;;;14.00;;
74064;SDS011;62421;51.412;5.432;2023-04-24T02:55:51;24.57;;;13.07;;
74064;SDS011;62421;51.412;5.432;2023-04-24T02:58:16;27.73;;;13.27;;
74064;SDS011;62421;51.412;5.432;2023-04-24T03:00:42;28.80;;;13.00;;
74064;SDS011;62421;51.412;5.432;2023-04-24T03:03:08;27.37;;;12.30;;
74064;SDS011;62421;51.412;5.432;2023-04-24T03:05:34;25.17;;;12.65;;
74064;SDS011;62421;51.412;5.432;2023-04-24T03:07:59;23.50;;;12.53;;
74064;SDS011;62421;51.412;5.432;2023-04-24T03:10:25;23.63;;;12.50;;
74064;SDS011;62421;51.412;5.432;2023-04-24T03:12:50;24.87;;;13.13;;
74064;SDS011;62421;51.412;5.432;2023-04-24T03:15:16;25.95;;;11.93;;
74064;SDS011;62421;51.412;5.432;2023-04-24T03:17:41;23.37;;;11.87;;
74064;SDS011;62421;51.412;5.432;2023-04-24T03:20:07;25.63;;;12.03;;
74064;SDS011;62421;51.412;5.432;2023-04-24T03:22:33;26.63;;;12.07;;
74064;SDS011;62421;51.412;5.432;2023-04-24T03:24:59;22.92;;;12.45;;
74064;SDS011;62421;51.412;5.432;2023-04-24T03:27:25;27.17;;;12.20;;
74064;SDS011;62421;51.412;5.432;2023-04-24T03:29:50;21.90;;;12.03;;
74064;SDS011;62421;51.412;5.432;2023-04-24T03:32:21;21.73;;;11.93;;
74064;SDS011;62421;51.412;5.432;2023-04-24T03:34:48;23.08;;;12.23;;
74064;SDS011;62421;51.412;5.432;2023-04-24T03:37:14;24.48;;;12.13;;
74064;SDS011;62421;51.412;5.432;2023-04-24T03:39:40;18.53;;;10.93;;
74064;SDS011;62421;51.412;5.432;2023-04-24T03:42:05;18.95;;;11.85;;
74064;SDS011;62421;51.412;5.432;2023-04-24T03:44:30;21.57;;;10.37;;
74064;SDS011;62421;51.412;5.432;2023-04-24T03:46:57;17.67;;;11.17;;
74064;SDS011;62421;51.412;5.432;2023-04-24T03:49:22;20.75;;;10.85;;
74064;SDS011;62421;51.412;5.432;2023-04-24T03:51:48;20.03;;;11.33;;
74064;SDS011;62421;51.412;5.432;2023-04-24T03:54:14;20.80;;;11.27;;
74064;SDS011;62421;51.412;5.432;2023-04-24T03:56:40;20.30;;;10.90;;
74064;SDS011;62421;51.412;5.432;2023-04-24T03:59:05;21.60;;;10.87;;
74064;SDS011;62421;51.412;5.432;2023-04-24T04:01:30;17.90;;;10.77;;
74064;SDS011;62421;51.412;5.432;2023-04-24T04:03:56;19.63;;;11.00;;
74064;SDS011;62421;51.412;5.432;2023-04-24T04:06:21;18.90;;;9.87;;
74064;SDS011;62421;51.412;5.432;2023-04-24T04:08:47;21.60;;;11.10;;
74064;SDS011;62421;51.412;5.432;2023-04-24T04:11:12;17.05;;;10.48;;
74064;SDS011;62421;51.412;5.432;2023-04-24T04:13:38;19.33;;;10.23;;
74064;SDS011;62421;51.412;5.432;2023-04-24T04:16:03;18.07;;;9.80;;
74064;SDS011;62421;51.412;5.432;2023-04-24T04:18:29;14.23;;;9.35;;
74064;SDS011;62421;51.412;5.432;2023-04-24T04:20:54;16.37;;;8.80;;
74064;SDS011;62421;51.412;5.432;2023-04-24T04:23:21;15.20;;;8.50;;
74064;SDS011;62421;51.412;5.432;2023-04-24T04:25:47;16.17;;;9.67;;
74064;SDS011;62421;51.412;5.432;2023-04-24T04:28:12;19.53;;;8.90;;
74064;SDS011;62421;51.412;5.432;2023-04-24T04:30:37;17.70;;;9.40;;
74064;SDS011;62421;51.412;5.432;2023-04-24T04:33:03;14.30;;;9.10;;
74064;SDS011;62421;51.412;5.432;2023-04-24T04:35:28;13.40;;;8.27;;
74064;SDS011;62421;51.412;5.432;2023-04-24T04:37:54;15.93;;;8.55;;
74064;SDS011;62421;51.412;5.432;2023-04-24T04:40:19;15.70;;;8.40;;
74064;SDS011;62421;51.412;5.432;2023-04-24T04:42:44;13.10;;;7.73;;
74064;SDS011;62421;51.412;5.432;2023-04-24T04:45:11;13.63;;;8.10;;
74064;SDS011;62421;51.412;5.432;2023-04-24T04:47:37;12.27;;;8.17;;
74064;SDS011;62421;51.412;5.432;2023-04-24T04:50:02;12.00;;;7.65;;
74064;SDS011;62421;51.412;5.432;2023-04-24T04:52:28;12.13;;;7.32;;
74064;SDS011;62421;51.412;5.432;2023-04-24T04:54:54;12.88;;;8.30;;
74064;SDS011;62421;51.412;5.432;2023-04-24T04:57:20;13.35;;;7.28;;
74064;SDS011;62421;51.412;5.432;2023-04-24T04:59:46;12.25;;;7.45;;
74064;SDS011;62421;51.412;5.432;2023-04-24T05:02:12;12.32;;;7.68;;
74064;SDS011;62421;51.412;5.432;2023-04-24T05:04:37;15.43;;;8.00;;
74064;SDS011;62421;51.412;5.432;2023-04-24T05:07:03;13.10;;;8.32;;
74064;SDS011;62421;51.412;5.432;2023-04-24T05:09:28;15.33;;;8.07;;
74064;SDS011;62421;51.412;5.432;2023-04-24T05:11:54;11.43;;;7.37;;
74064;SDS011;62421;51.412;5.432;2023-04-24T05:14:20;10.05;;;6.07;;
74064;SDS011;62421;51.412;5.432;2023-04-24T05:16:45;9.13;;;5.17;;
74064;SDS011;62421;51.412;5.432;2023-04-24T05:19:11;7.85;;;4.60;;
74064;SDS011;62421;51.412;5.432;2023-04-24T05:21:42;9.00;;;4.43;;
74064;SDS011;62421;51.412;5.432;2023-04-24T05:24:08;6.88;;;3.10;;
74064;SDS011;62421;51.412;5.432;2023-04-24T05:26:33;7.73;;;3.20;;
74064;SDS011;62421;51.412;5.432;2023-04-24T05:28:58;8.15;;;3.33;;
74064;SDS011;62421;51.412;5.432;2023-04-24T05:31:24;9.10;;;3.73;;
74064;SDS011;62421;51.412;5.432;2023-04-24T05:33:50;5.20;;;2.73;;
74064;SDS011;62421;51.412;5.432;2023-04-24T05:36:15;6.45;;;2.90;;
74064;SDS011;62421;51.412;5.432;2023-04-24T05:38:41;8.40;;;2.60;;
74064;SDS011;62421;51.412;5.432;2023-04-24T05:41:06;6.67;;;2.40;;
74064;SDS011;62421;51.412;5.432;2023-04-24T05:43:31;9.00;;;3.67;;
74064;SDS011;62421;51.412;5.432;2023-04-24T05:45:57;6.27;;;2.00;;
74064;SDS011;62421;51.412;5.432;2023-04-24T05:48:23;9.05;;;3.08;;
74064;SDS011;62421;51.412;5.432;2023-04-24T05:50:48;3.80;;;2.10;;
74064;SDS011;62421;51.412;5.432;2023-04-24T05:53:14;7.73;;;2.27;;
74064;SDS011;62421;51.412;5.432;2023-04-24T05:55:39;8.30;;;3.20;;
74064;SDS011;62421;51.412;5.432;2023-04-24T05:58:05;6.22;;;2.42;;
74064;SDS011;62421;51.412;5.432;2023-04-24T06:00:31;7.37;;;2.50;;
74064;SDS011;62421;51.412;5.432;2023-04-24T06:02:57;5.57;;;2.47;;
74064;SDS011;62421;51.412;5.432;2023-04-24T06:05:22;5.83;;;2.80;;
74064;SDS011;62421;51.412;5.432;2023-04-24T06:07:48;5.57;;;2.95;;
74064;SDS011;62421;51.412;5.432;2023-04-24T06:10:13;7.77;;;3.70;;
74064;SDS011;62421;51.412;5.432;2023-04-24T06:12:39;7.47;;;3.50;;
74064;SDS011;62421;51.412;5.432;2023-04-24T06:15:04;6.17;;;3.20;;
74064;SDS011;62421;51.412;5.432;2023-04-24T06:17:30;6.40;;;3.00;;
74064;SDS011;62421;51.412;5.432;2023-04-24T06:19:55;9.80;;;3.17;;
74064;SDS011;62421;51.412;5.432;2023-04-24T06:22:21;9.87;;;3.67;;
74064;SDS011;62421;51.412;5.432;2023-04-24T06:24:46;7.57;;;3.67;;
74064;SDS011;62421;51.412;5.432;2023-04-24T06:27:13;8.75;;;4.40;;
74064;SDS011;62421;51.412;5.432;2023-04-24T06:29:38;8.97;;;4.50;;
74064;SDS011;62421;51.412;5.432;2023-04-24T06:32:04;8.80;;;4.65;;
74064;SDS011;62421;51.412;5.432;2023-04-24T06:34:30;8.37;;;5.03;;
74064;SDS011;62421;51.412;5.432;2023-04-24T06:36:56;9.63;;;5.32;;
74064;SDS011;62421;51.412;5.432;2023-04-24T06:39:21;11.57;;;4.83;;
74064;SDS011;62421;51.412;5.432;2023-04-24T06:41:47;13.57;;;7.50;;
74064;SDS011;62421;51.412;5.432;2023-04-24T06:44:12;13.63;;;7.32;;
74064;SDS011;62421;51.412;5.432;2023-04-24T06:46:39;17.40;;;8.93;;
74064;SDS011;62421;51.412;5.432;2023-04-24T06:49:05;13.45;;;7.50;;
74064;SDS011;62421;51.412;5.432;2023-04-24T06:51:31;22.53;;;9.70;;
74064;SDS011;62421;51.412;5.432;2023-04-24T06:53:57;18.95;;;10.00;;
74064;SDS011;62421;51.412;5.432;2023-04-24T06:56:23;17.77;;;10.57;;
74064;SDS011;62421;51.412;5.432;2023-04-24T06:58:48;21.70;;;10.67;;
74064;SDS011;62421;51.412;5.432;2023-04-24T07:01:14;18.08;;;10.77;;
74064;SDS011;62421;51.412;5.432;2023-04-24T07:03:39;19.10;;;10.53;;
74064;SDS011;62421;51.412;5.432;2023-04-24T07:06:05;21.53;;;10.63;;
74064;SDS011;62421;51.412;5.432;2023-04-24T07:08:31;21.88;;;11.25;;
74064;SDS011;62421;51.412;5.432;2023-04-24T07:10:58;23.05;;;11.80;;
74064;SDS011;62421;51.412;5.432;2023-04-24T07:13:24;23.13;;;10.50;;
74064;SDS011;62421;51.412;5.432;2023-04-24T07:15:49;21.38;;;12.30;;
74064;SDS011;62421;51.412;5.432;2023-04-24T07:18:16;16.23;;;8.50;;
74064;SDS011;62421;51.412;5.432;2023-04-24T07:20:42;21.40;;;11.98;;
74064;SDS011;62421;51.412;5.432;2023-04-24T07:23:07;26.42;;;12.80;;
74064;SDS011;62421;51.412;5.432;2023-04-24T07:25:33;24.07;;;12.10;;
74064;SDS011;62421;51.412;5.432;2023-04-24T07:27:58;22.60;;;11.03;;
74064;SDS011;62421;51.412;5.432;2023-04-24T07:30:24;22.10;;;11.75;;
74064;SDS011;62421;51.412;5.432;2023-04-24T07:32:50;20.87;;;10.17;;
74064;SDS011;62421;51.412;5.432;2023-04-24T07:35:15;19.47;;;9.60;;
74064;SDS011;62421;51.412;5.432;2023-04-24T07:37:41;20.70;;;9.10;;
74064;SDS011;62421;51.412;5.432;2023-04-24T07:40:10;21.27;;;9.25;;
74064;SDS011;62421;51.412;5.432;2023-04-24T07:42:39;20.93;;;8.40;;
74064;SDS011;62421;51.412;5.432;2023-04-24T07:45:05;18.83;;;8.05;;
74064;SDS011;62421;51.412;5.432;2023-04-24T07:47:31;20.70;;;7.63;;
74064;SDS011;62421;51.412;5.432;2023-04-24T07:49:57;18.88;;;7.45;;
74064;SDS011;62421;51.412;5.432;2023-04-24T07:52:23;19.85;;;7.38;;
74064;SDS011;62421;51.412;5.432;2023-04-24T07:54:49;25.75;;;7.72;;
74064;SDS011;62421;51.412;5.432;2023-04-24T07:57:15;20.00;;;7.93;;
74064;SDS011;62421;51.412;5.432;2023-04-24T07:59:40;25.27;;;8.60;;
74064;SDS011;62421;51.412;5.432;2023-04-24T08:02:06;27.70;;;8.60;;
74064;SDS011;62421;51.412;5.432;2023-04-24T08:04:32;28.00;;;10.33;;
74064;SDS011;62421;51.412;5.432;2023-04-24T08:06:57;27.92;;;9.02;;
74064;SDS011;62421;51.412;5.432;2023-04-24T08:09:23;23.77;;;10.27;;
74064;SDS011;62421;51.412;5.432;2023-04-24T08:11:48;28.40;;;10.90;;
74064;SDS011;62421;51.412;5.432;2023-04-24T08:14:14;25.93;;;11.53;;
74064;SDS011;62421;51.412;5.432;2023-04-24T08:16:40;27.80;;;10.77;;
74064;SDS011;62421;51.412;5.432;2023-04-24T08:19:05;33.40;;;11.17;;
74064;SDS011;62421;51.412;5.432;2023-04-24T08:21:31;31.13;;;10.00;;
74064;SDS011;62421;51.412;5.432;2023-04-24T08:23:57;30.17;;;10.70;;
74064;SDS011;62421;51.412;5.432;2023-04-24T08:26:22;27.67;;;8.63;;
74064;SDS011;62421;51.412;5.432;2023-04-24T08:28:48;24.45;;;8.73;;
74064;SDS011;62421;51.412;5.432;2023-04-24T08:31:13;31.10;;;9.80;;
74064;SDS011;62421;51.412;5.432;2023-04-24T08:33:38;20.20;;;8.10;;
74064;SDS011;62421;51.412;5.432;2023-04-24T08:36:05;23.23;;;7.95;;
74064;SDS011;62421;51.412;5.432;2023-04-24T08:38:32;25.50;;;8.18;;
74064;SDS011;62421;51.412;5.432;2023-04-24T08:40:58;31.57;;;9.53;;
74064;SDS011;62421;51.412;5.432;2023-04-24T08:43:24;26.95;;;7.90;;
74064;SDS011;62421;51.412;5.432;2023-04-24T08:45:51;18.58;;;6.95;;
74064;SDS011;62421;51.412;5.432;2023-04-24T08:48:17;25.77;;;7.90;;
74064;SDS011;62421;51.412;5.432;2023-04-24T08:50:43;22.77;;;8.30;;
74064;SDS011;62421;51.412;5.432;2023-04-24T08:53:09;31.95;;;8.30;;
74064;SDS011;62421;51.412;5.432;2023-04-24T08:55:35;21.98;;;7.88;;
74064;SDS011;62421;51.412;5.432;2023-04-24T08:58:01;21.43;;;7.43;;
74064;SDS011;62421;51.412;5.432;2023-04-24T09:00:28;17.30;;;6.68;;
74064;SDS011;62421;51.412;5.432;2023-04-24T09:02:53;21.75;;;5.47;;
74064;SDS011;62421;51.412;5.432;2023-04-24T09:05:20;18.87;;;4.50;;
74064;SDS011;62421;51.412;5.432;2023-04-24T09:07:49;17.45;;;5.00;;
74064;SDS011;62421;51.412;5.432;2023-04-24T09:10:19;14.93;;;4.18;;
74064;SDS011;62421;51.412;5.432;2023-04-24T09:12:46;8.75;;;3.25;;
74064;SDS011;62421;51.412;5.432;2023-04-24T09:15:11;16.43;;;4.43;;
74064;SDS011;62421;51.412;5.432;2023-04-24T09:17:37;16.35;;;3.70;;
74064;SDS011;62421;51.412;5.432;2023-04-24T09:20:03;13.90;;;4.43;;
74064;SDS011;62421;51.412;5.432;2023-04-24T09:22:32;27.25;;;5.00;;
74064;SDS011;62421;51.412;5.432;2023-04-24T09:25:05;15.07;;;4.95;;
74064;SDS011;62421;51.412;5.432;2023-04-24T09:27:32;13.65;;;3.67;;
74064;SDS011;62421;51.412;5.432;2023-04-24T09:29:59;13.03;;;4.00;;
74064;SDS011;62421;51.412;5.432;2023-04-24T09:32:25;20.00;;;3.60;;
74064;SDS011;62421;51.412;5.432;2023-04-24T09:35:07;22.63;;;5.38;;
74064;SDS011;62421;51.412;5.432;2023-04-24T09:37:46;10.17;;;3.23;;
74064;SDS011;62421;51.412;5.432;2023-04-24T09:40:20;17.83;;;3.70;;
74064;SDS011;62421;51.412;5.432;2023-04-24T09:45:20;13.60;;;3.88;;
74064;SDS011;62421;51.412;5.432;2023-04-24T09:47:45;20.90;;;4.87;;
74064;SDS011;62421;51.412;5.432;2023-04-24T09:50:15;14.60;;;4.60;;
74064;SDS011;62421;51.412;5.432;2023-04-24T09:52:45;19.25;;;4.68;;
74064;SDS011;62421;51.412;5.432;2023-04-24T09:55:20;17.73;;;4.25;;
74064;SDS011;62421;51.412;5.432;2023-04-24T09:57:49;24.50;;;4.93;;
74064;SDS011;62421;51.412;5.432;2023-04-24T10:00:22;20.67;;;5.55;;
74064;SDS011;62421;51.412;5.432;2023-04-24T10:03:04;15.25;;;3.25;;
74064;SDS011;62421;51.412;5.432;2023-04-24T10:05:34;15.18;;;2.78;;
74064;SDS011;62421;51.412;5.432;2023-04-24T10:08:07;11.27;;;3.20;;
74064;SDS011;62421;51.412;5.432;2023-04-24T10:10:42;15.68;;;2.80;;
74064;SDS011;62421;51.412;5.432;2023-04-24T10:13:13;19.55;;;2.80;;
74064;SDS011;62421;51.412;5.432;2023-04-24T10:15:40;12.77;;;2.88;;
74064;SDS011;62421;51.412;5.432;2023-04-24T10:18:07;10.48;;;2.67;;
74064;SDS011;62421;51.412;5.432;2023-04-24T10:20:34;8.10;;;2.43;;
74064;SDS011;62421;51.412;5.432;2023-04-24T10:23:02;13.38;;;3.08;;
74064;SDS011;62421;51.412;5.432;2023-04-24T10:25:28;14.80;;;3.10;;
74064;SDS011;62421;51.412;5.432;2023-04-24T10:27:56;11.85;;;2.90;;
74064;SDS011;62421;51.412;5.432;2023-04-24T10:30:24;11.02;;;2.83;;
74064;SDS011;62421;51.412;5.432;2023-04-24T10:32:54;15.00;;;3.53;;
74064;SDS011;62421;51.412;5.432;2023-04-24T10:35:19;9.88;;;2.70;;
74064;SDS011;62421;51.412;5.432;2023-04-24T10:38:06;9.23;;;2.77;;
74064;SDS011;62421;51.412;5.432;2023-04-24T10:40:36;14.98;;;2.90;;
74064;SDS011;62421;51.412;5.432;2023-04-24T10:43:02;7.28;;;2.72;;
74064;SDS011;62421;51.412;5.432;2023-04-24T10:45:31;7.13;;;2.33;;
74064;SDS011;62421;51.412;5.432;2023-04-24T10:48:01;12.48;;;2.75;;
74064;SDS011;62421;51.412;5.432;2023-04-24T10:50:28;10.23;;;2.33;;
74064;SDS011;62421;51.412;5.432;2023-04-24T10:53:04;4.57;;;1.53;;
74064;SDS011;62421;51.412;5.432;2023-04-24T10:55:42;6.97;;;2.30;;
74064;SDS011;62421;51.412;5.432;2023-04-24T10:58:22;8.75;;;2.08;;
74064;SDS011;62421;51.412;5.432;2023-04-24T11:00:58;12.23;;;2.20;;
74064;SDS011;62421;51.412;5.432;2023-04-24T11:03:31;8.27;;;1.50;;
74064;SDS011;62421;51.412;5.432;2023-04-24T11:08:30;4.30;;;1.80;;
74064;SDS011;62421;51.412;5.432;2023-04-24T11:10:58;4.63;;;1.67;;
74064;SDS011;62421;51.412;5.432;2023-04-24T11:13:26;4.80;;;1.75;;
74064;SDS011;62421;51.412;5.432;2023-04-24T11:16:11;6.65;;;1.80;;
74064;SDS011;62421;51.412;5.432;2023-04-24T11:18:45;5.07;;;1.77;;
74064;SDS011;62421;51.412;5.432;2023-04-24T11:21:11;6.78;;;1.65;;
74064;SDS011;62421;51.412;5.432;2023-04-24T11:23:37;3.67;;;1.30;;
74064;SDS011;62421;51.412;5.432;2023-04-24T11:26:10;4.80;;;1.50;;
74064;SDS011;62421;51.412;5.432;2023-04-24T11:28:49;5.45;;;1.73;;
74064;SDS011;62421;51.412;5.432;2023-04-24T11:34:09;9.30;;;1.42;;
74064;SDS011;62421;51.412;5.432;2023-04-24T11:36:37;11.50;;;1.88;;
74064;SDS011;62421;51.412;5.432;2023-04-24T11:39:02;5.03;;;2.23;;
74064;SDS011;62421;51.412;5.432;2023-04-24T11:41:28;5.78;;;1.75;;
74064;SDS011;62421;51.412;5.432;2023-04-24T11:43:54;3.47;;;1.83;;
74064;SDS011;62421;51.412;5.432;2023-04-24T11:46:21;5.60;;;1.45;;
74064;SDS011;62421;51.412;5.432;2023-04-24T11:48:46;6.93;;;1.50;;
74064;SDS011;62421;51.412;5.432;2023-04-24T11:51:12;5.45;;;1.65;;
74064;SDS011;62421;51.412;5.432;2023-04-24T11:53:38;7.57;;;1.37;;
74064;SDS011;62421;51.412;5.432;2023-04-24T11:56:04;7.28;;;1.63;;
74064;SDS011;62421;51.412;5.432;2023-04-24T11:58:34;6.80;;;1.20;;
74064;SDS011;62421;51.412;5.432;2023-04-24T12:01:00;2.85;;;1.27;;
74064;SDS011;62421;51.412;5.432;2023-04-24T12:03:26;4.00;;;1.03;;
74064;SDS011;62421;51.412;5.432;2023-04-24T12:05:52;3.70;;;1.17;;
74064;SDS011;62421;51.412;5.432;2023-04-24T12:08:27;4.43;;;1.13;;
74064;SDS011;62421;51.412;5.432;2023-04-24T12:10:53;4.88;;;1.73;;
74064;SDS011;62421;51.412;5.432;2023-04-24T12:13:19;4.43;;;1.60;;
74064;SDS011;62421;51.412;5.432;2023-04-24T12:15:44;6.13;;;1.30;;
74064;SDS011;62421;51.412;5.432;2023-04-24T12:18:11;4.65;;;1.27;;
74064;SDS011;62421;51.412;5.432;2023-04-24T12:20:37;3.90;;;1.30;;
74064;SDS011;62421;51.412;5.432;2023-04-24T12:23:03;7.27;;;1.30;;
74064;SDS011;62421;51.412;5.432;2023-04-24T12:25:29;2.67;;;1.05;;
74064;SDS011;62421;51.412;5.432;2023-04-24T12:30:31;4.22;;;1.40;;
74064;SDS011;62421;51.412;5.432;2023-04-24T12:32:58;5.05;;;1.52;;
74064;SDS011;62421;51.412;5.432;2023-04-24T12:35:27;3.75;;;1.40;;
74064;SDS011;62421;51.412;5.432;2023-04-24T12:37:53;6.28;;;1.60;;
74064;SDS011;62421;51.412;5.432;2023-04-24T12:40:20;4.90;;;1.30;;
74064;SDS011;62421;51.412;5.432;2023-04-24T12:42:50;7.22;;;1.92;;
74064;SDS011;62421;51.412;5.432;2023-04-24T12:45:16;7.77;;;1.73;;
74064;SDS011;62421;51.412;5.432;2023-04-24T12:47:45;4.10;;;1.55;;
74064;SDS011;62421;51.412;5.432;2023-04-24T12:50:14;5.85;;;1.35;;
74064;SDS011;62421;51.412;5.432;2023-04-24T12:52:40;7.47;;;1.60;;
74064;SDS011;62421;51.412;5.432;2023-04-24T12:55:07;7.20;;;1.17;;
74064;SDS011;62421;51.412;5.432;2023-04-24T12:57:34;4.40;;;1.37;;
74064;SDS011;62421;51.412;5.432;2023-04-24T13:00:00;6.32;;;1.50;;
74064;SDS011;62421;51.412;5.432;2023-04-24T13:02:29;7.38;;;1.20;;
74064;SDS011;62421;51.412;5.432;2023-04-24T13:04:55;6.03;;;1.50;;
74064;SDS011;62421;51.412;5.432;2023-04-24T13:07:21;5.78;;;1.88;;
74064;SDS011;62421;51.412;5.432;2023-04-24T13:09:47;4.00;;;1.83;;
74064;SDS011;62421;51.412;5.432;2023-04-24T13:12:14;3.78;;;1.42;;
74064;SDS011;62421;51.412;5.432;2023-04-24T13:14:40;3.58;;;1.80;;
74064;SDS011;62421;51.412;5.432;2023-04-24T13:17:05;5.13;;;1.47;;
74064;SDS011;62421;51.412;5.432;2023-04-24T13:19:39;6.45;;;1.83;;
74064;SDS011;62421;51.412;5.432;2023-04-24T13:22:06;5.33;;;2.43;;
74064;SDS011;62421;51.412;5.432;2023-04-24T13:24:32;5.15;;;1.90;;
74064;SDS011;62421;51.412;5.432;2023-04-24T13:26:58;4.75;;;2.10;;
74064;SDS011;62421;51.412;5.432;2023-04-24T13:29:25;4.75;;;1.88;;
74064;SDS011;62421;51.412;5.432;2023-04-24T13:31:50;7.83;;;2.20;;
74064;SDS011;62421;51.412;5.432;2023-04-24T13:34:17;8.80;;;1.88;;
74064;SDS011;62421;51.412;5.432;2023-04-24T13:36:42;8.23;;;2.15;;
74064;SDS011;62421;51.412;5.432;2023-04-24T13:39:08;4.63;;;2.13;;
74064;SDS011;62421;51.412;5.432;2023-04-24T13:41:33;7.73;;;2.43;;
74064;SDS011;62421;51.412;5.432;2023-04-24T13:43:59;8.40;;;2.38;;
74064;SDS011;62421;51.412;5.432;2023-04-24T13:46:25;10.37;;;2.53;;
74064;SDS011;62421;51.412;5.432;2023-04-24T13:48:50;7.27;;;1.87;;
74064;SDS011;62421;51.412;5.432;2023-04-24T13:51:16;6.68;;;1.73;;
74064;SDS011;62421;51.412;5.432;2023-04-24T13:53:41;6.80;;;1.90;;
74064;SDS011;62421;51.412;5.432;2023-04-24T13:56:06;7.97;;;2.03;;
74064;SDS011;62421;51.412;5.432;2023-04-24T13:58:32;13.18;;;1.85;;
74064;SDS011;62421;51.412;5.432;2023-04-24T14:00:58;6.40;;;1.63;;
74064;SDS011;62421;51.412;5.432;2023-04-24T14:03:23;4.23;;;1.70;;
74064;SDS011;62421;51.412;5.432;2023-04-24T14:05:49;7.40;;;1.70;;
74064;SDS011;62421;51.412;5.432;2023-04-24T14:08:14;6.13;;;1.80;;
74064;SDS011;62421;51.412;5.432;2023-04-24T14:10:40;4.30;;;1.90;;
74064;SDS011;62421;51.412;5.432;2023-04-24T14:13:05;6.77;;;1.67;;
74064;SDS011;62421;51.412;5.432;2023-04-24T14:15:31;5.35;;;1.52;;
74064;SDS011;62421;51.412;5.432;2023-04-24T14:17:56;4.40;;;1.80;;
74064;SDS011;62421;51.412;5.432;2023-04-24T14:20:22;6.63;;;2.27;;
74064;SDS011;62421;51.412;5.432;2023-04-24T14:22:48;7.38;;;1.63;;
74064;SDS011;62421;51.412;5.432;2023-04-24T14:25:13;9.30;;;2.37;;
74064;SDS011;62421;51.412;5.432;2023-04-24T14:27:38;9.40;;;2.10;;
74064;SDS011;62421;51.412;5.432;2023-04-24T14:30:05;5.90;;;1.60;;
74064;SDS011;62421;51.412;5.432;2023-04-24T14:32:31;3.80;;;1.57;;
74064;SDS011;62421;51.412;5.432;2023-04-24T14:34:56;9.45;;;1.98;;
74064;SDS011;62421;51.412;5.432;2023-04-24T14:37:22;7.63;;;2.60;;
74064;SDS011;62421;51.412;5.432;2023-04-24T14:39:47;3.97;;;1.80;;
74064;SDS011;62421;51.412;5.432;2023-04-24T14:42:12;6.30;;;2.10;;